Latest Coastal Weather Observations for Cape Borda

IDT60701

Issued at 6:32 pm EST Thursday 21 September 2017 (issued every 10 minutes, with the page automatically refreshed every 10 minutes)

About coastal observations | Map of coastal stations | Coastal observations for TAS | Marine services | Other Formats
Station Details ID: 022823 Name: CAPE BORDA Lat: -35.75 Lon: 136.60 Height: 158.0 m
Data from the previous 72 hours. | See also: Recent months at Cape Borda
Date/Time
EST
Temp
°C
Wind Pressure Rain since
9am
mm
Weather Cloud Vis
km
Sea
Height
m
Swell
Dir  Spd
kts
Gust
kts
hPa Trend Height
m
Period
s
Dir
21/06:30pm 12.8 SSW 8 10 1010.4 - 0.0 - - - - - - -
21/06:00pm 13.7 SW 7 10 1010.3 - 0.0 - - - - - - -
21/05:30pm 14.3 WSW 7 10 1010.2 - 0.0 - - - - - - -
21/05:00pm 14.7 W 7 9 1009.8 - 0.0 - - - - - - -
21/04:30pm 14.3 WSW 7 10 1009.7 - 0.0 - - - - - - -
21/04:00pm 14.7 W 8 11 1010.1 - 0.0 - - - - - - -
21/03:30pm 15.1 S 9 12 1010.1 - 0.0 - - - - - - -
21/03:00pm 15.0 WSW 11 14 1010.5 - 0.0 - - - - - - -
21/02:30pm 15.1 SW 9 13 1010.2 - 0.0 - - - - - - -
21/02:00pm 15.0 SW 9 14 1010.5 - 0.0 - - - - - - -
21/01:30pm 15.1 WSW 10 13 1010.7 - 0.0 - - - - - - -
21/01:00pm 15.2 SW 8 11 1010.8 - 0.0 - - - - - - -
21/12:30pm 14.3 WSW 10 14 1011.4 - 0.0 - - - - - - -
21/12:00pm 14.3 SSW 10 14 1011.2 - 0.0 - - - - - - -
21/11:30am 15.1 SSW 11 15 1011.2 - 0.0 - - - - - - -
21/11:00am 14.3 SSW 12 16 1011.2 - 0.0 - - - - - - -
21/10:30am 14.3 SW 11 16 1011.2 - 0.0 - - - - - - -
21/10:00am 14.3 SSW 10 14 1010.8 - 0.0 - - - - - - -
21/09:30am 13.8 SSW 11 15 1010.5 - 0.0 - - - - - - -
21/09:00am 13.3 SW 12 16 1010.5 - 0.0 - - - - - - -
21/08:30am 13.3 SSW 10 13 1010.4 - 0.0 - - - - - - -
21/08:00am 12.0 SSW 9 13 1010.3 - 0.0 - - - - - - -
21/07:30am 11.7 SSW 11 14 1009.9 - 0.0 - - - - - - -
21/07:00am 11.2 SSW 12 15 1009.6 - 0.0 - - - - - - -
21/06:30am 11.2 S 9 12 1009.2 - 0.0 - - - - - - -
21/06:00am 11.8 SSW 10 15 1008.9 - 0.0 - - - - - - -
21/05:30am 12.5 SSW 13 16 1008.5 - 0.0 - - - - - - -
21/05:00am 12.5 SSW 12 17 1008.1 - 0.0 - - - - - - -
21/04:30am 12.5 SSW 12 17 1007.7 - 0.0 - - - - - - -
21/04:00am 12.6 SSW 12 16 1007.5 - 0.0 - - - - - - -
21/03:30am 13.3 SSW 10 13 1007.4 - 0.0 - - - - - - -
21/03:00am 13.3 SW 12 18 1007.6 - 0.0 - - - - - - -
21/02:30am 13.5 SW 11 14 1007.7 - 0.0 - - - - - - -
21/02:00am 13.4 SW 9 12 1007.8 - 0.0 - - - - - - -
21/01:30am 13.9 SW 10 13 1007.7 - 0.0 - - - - - - -
21/01:00am 14.6 W 7 10 1007.7 - 0.0 - - - - - - -
21/12:30am 15.8 NW 5 8 1007.6 - 0.0 - - - - - - -
21/12:00am 15.3 N 5 6 1007.9 - 0.0 - - - - - - -
 
Date/Time
EST
Temp
°C
Wind Pressure Rain since
9am
mm
Weather Cloud Vis
km
Sea
Height
m
Swell
Dir  Spd
kts
Gust
kts
hPa Trend Height
m
Period
s
Dir
20/11:30pm 16.2 NNW 7 11 1008.2 - 0.0 - - - - - - -
20/11:00pm 15.9 NNW 9 12 1008.3 - 0.0 - - - - - - -
20/10:30pm 16.6 NNE 13 17 1007.7 - 0.0 - - - - - - -
20/10:00pm 16.7 NE 13 18 1008.1 - 0.0 - - - - - - -
20/09:30pm 17.0 NNE 13 18 1008.7 - 0.0 - - - - - - -
20/09:00pm 16.5 NE 11 16 1008.7 - 0.0 - - - - - - -
20/08:30pm 16.7 NE 13 17 1008.8 - 0.0 - - - - - - -
20/08:00pm 16.5 NE 13 19 1008.8 - 0.0 - - - - - - -
20/07:30pm 17.1 NE 16 23 1008.5 - 0.0 - - - - - - -
20/07:00pm 16.3 NE 14 20 1008.4 - 0.0 - - - - - - -
20/06:30pm 16.0 NE 14 19 1008.8 - 0.0 - - - - - - -
20/06:00pm 15.9 NE 12 17 1009.7 - 0.0 - - - - - - -
20/05:30pm 16.0 NE 13 17 1009.8 - 0.0 - - - - - - -
20/05:00pm 16.3 NE 14 21 1009.6 - 0.0 - - - - - - -
20/04:30pm 16.7 NE 14 19 1009.9 - 0.0 - - - - - - -
20/04:00pm 16.3 NNE 15 22 1010.3 - 0.0 - - - - - - -
20/03:30pm 16.1 NE 14 19 1010.6 - 0.0 - - - - - - -
20/03:00pm 16.1 NE 15 21 1010.8 - 0.0 - - - - - - -
20/02:30pm 16.8 NE 15 20 1011.3 - 0.0 - - - - - - -
20/02:00pm 15.2 NE 14 19 1012.1 - 0.0 - - - - - - -
20/01:30pm 16.4 NNE 12 17 1012.8 - 0.0 - - - - - - -
20/01:00pm 16.6 NNE 11 18 1013.5 - 0.0 - - - - - - -
20/12:30pm 16.1 N 13 18 1014.4 - 0.0 - - - - - - -
20/12:00pm 16.1 NNE 13 19 1014.7 - 0.0 - - - - - - -
20/11:30am 15.7 NNE 16 22 1014.8 - 0.0 - - - - - - -
20/11:00am 14.4 NE 13 18 1015.3 - 0.0 - - - - - - -
20/10:30am 14.7 NE 13 18 1015.8 - 0.0 - - - - - - -
20/10:00am 14.4 NE 14 19 1016.1 - 0.0 - - - - - - -
20/09:30am 13.8 NE 15 19 1016.2 - 0.0 - - - - - - -
20/09:00am 13.5 NE 13 19 1016.5 - 0.0 - - - - - - -
20/08:30am 12.8 NE 13 16 1016.8 - 0.0 - - - - - - -
20/08:00am 12.1 NE 11 16 1016.9 - 0.0 - - - - - - -
20/07:30am 11.6 NE 12 14 1016.9 - 0.0 - - - - - - -
20/07:00am 11.5 NE 11 14 1016.8 - 0.0 - - - - - - -
20/06:30am 11.6 NE 10 13 1017.0 - 0.0 - - - - - - -
20/06:00am 12.1 NNE 11 13 1017.1 - 0.0 - - - - - - -
20/05:30am 12.1 NNE 13 18 1016.3 - 0.0 - - - - - - -
20/05:00am 11.8 NNE 11 15 1016.3 - 0.0 - - - - - - -
20/04:30am 12.0 NNE 11 16 1016.5 - 0.0 - - - - - - -
20/04:00am 11.9 NNE 11 16 1016.6 - 0.0 - - - - - - -
20/03:30am 11.9 NNE 12 17 1017.2 - 0.0 - - - - - - -
20/03:00am 11.9 NNE 12 15 1017.5 - 0.0 - - - - - - -
20/02:30am 12.1 N 14 19 1017.8 - 0.0 - - - - - - -
20/02:00am 12.0 N 12 18 1018.5 - 0.0 - - - - - - -
20/01:30am 11.6 N 13 19 1017.9 - 0.0 - - - - - - -
20/01:00am 11.4 NNE 14 24 1018.3 - 0.0 - - - - - - -
20/12:48am 11.2 N 15 27 1017.4 - 0.0 - - - - - - -
20/12:30am 11.5 N 15 21 1019.0 - 0.0 - - - - - - -
20/12:00am 11.4 N 13 18 1019.8 - 0.0 - - - - - - -
 
Date/Time
EST
Temp
°C
Wind Pressure Rain since
9am
mm
Weather Cloud Vis
km
Sea
Height
m
Swell
Dir  Spd
kts
Gust
kts
hPa Trend Height
m
Period
s
Dir
19/11:30pm 11.4 N 10 14 1020.3 - 0.0 - - - - - - -
19/11:00pm 11.3 N 14 18 1020.1 - 0.0 - - - - - - -
19/10:30pm 11.3 N 12 15 1020.8 - 0.0 - - - - - - -
19/10:00pm 11.2 N 13 16 1020.6 - 0.0 - - - - - - -
19/09:30pm 11.1 N 11 14 1020.9 - 0.0 - - - - - - -
19/09:00pm 11.0 N 7 11 1021.6 - 0.0 - - - - - - -
19/08:30pm 10.9 N 7 10 1021.5 - 0.0 - - - - - - -
19/08:00pm 10.9 N 7 11 1021.4 - 0.0 - - - - - - -
19/07:30pm 11.1 N 7 9 1021.1 - 0.0 - - - - - - -
19/07:00pm 11.0 NNW 7 9 1021.4 - 0.0 - - - - - - -
19/06:30pm 11.5 NNW 7 11 1021.3 - 0.0 - - - - - - -
19/06:00pm 11.8 NNW 8 11 1021.6 - 0.0 - - - - - - -
19/05:30pm 12.0 NNW 8 11 1021.7 - 0.0 - - - - - - -
19/05:00pm 12.8 NNW 9 12 1021.6 - 0.0 - - - - - - -
19/04:30pm 12.8 NNW 8 11 1021.7 - 0.0 - - - - - - -
19/04:00pm 13.3 NNW 8 12 1021.9 - 0.0 - - - - - - -
19/03:30pm 12.5 N 7 9 1022.3 F 0.0 Fine Cloudy 25 <0.5 8.1 11 SW
19/03:00pm 12.5 NNW 8 11 1022.5 - 0.0 - - - - - - -
19/02:30pm 12.7 N 8 10 1022.6 - 0.0 - - - - - - -
19/02:00pm 13.2 NNW 8 11 1023.1 - 0.0 - - - - - - -
19/01:30pm 13.2 N 8 11 1023.4 - 0.0 - - - - - - -
19/01:00pm 12.5 N 7 9 1023.7 - 0.0 - - - - - - -
19/12:30pm 12.5 NNW 6 8 1024.0 - 0.0 - - - - - - -
19/12:00pm 12.2 NNW 7 9 1024.0 - 0.0 - - - - - - -
19/11:30am 12.1 NW 6 8 1024.1 - 0.0 - - - - - - -
19/11:00am 12.1 WNW 6 9 1024.2 - 0.0 - - - - - - -
19/10:30am 11.3 WNW 9 11 1024.4 - 0.0 - - - - - - -
19/10:00am 11.0 WSW 8 13 1024.4 - 0.0 - - - - - - -
19/09:30am 11.1 W 11 14 1024.4 R 2.6 Fine Cloudy 22 <0.5 9.5 10 SW
19/09:00am 10.8 SW 7 11 1024.0 - 2.6 - - - - - - -
19/08:30am 10.1 SSE 2 4 1023.8 - 2.6 - - - - - - -
19/08:00am 9.8 S 6 8 1023.5 - 2.6 - - - - - - -
19/07:30am 9.4 SW 7 9 1023.2 - 2.6 - - - - - - -
19/07:00am 9.4 SSW 9 13 1022.8 - 2.6 - - - - - - -
19/06:30am 9.1 SW 10 19 1022.6 - 2.6 - - - - - - -
19/06:00am 9.0 SW 8 15 1022.1 - 2.6 - - - - - - -
19/05:30am 9.4 SW 14 20 1022.0 - 2.2 - - - - - - -
19/05:00am 10.4 SW 11 16 1021.7 - 2.0 - - - - - - -
19/04:30am 10.3 SW 14 19 1021.7 - 2.0 - - - - - - -
19/04:00am 10.3 SW 14 19 1021.5 - 2.0 - - - - - - -
19/03:30am 10.1 SW 11 16 1021.5 - 2.0 - - - - - - -
19/03:00am 9.4 SW 12 18 1021.6 - 2.0 - - - - - - -
19/02:30am 9.2 WSW 15 22 1021.8 - 2.0 - - - - - - -
19/02:11am 10.4 WSW 15 26 1021.9 - 1.8 - - - - - - -
19/02:00am 10.2 SW 15 19 1021.9 - 1.8 - - - - - - -
19/01:30am 10.4 SW 15 22 1021.8 - 1.8 - - - - - - -
19/01:00am 10.0 SW 13 19 1021.8 - 1.8 - - - - - - -
19/12:47am 9.8 WSW 15 25 1021.7 - 1.8 - - - - - - -
19/12:30am 10.3 SW 18 23 1021.6 - 1.8 - - - - - - -
19/12:00am 10.4 SW 14 22 1021.4 - 1.8 - - - - - - -
 
Date/Time
EST
Temp
°C
Wind Pressure Rain since
9am
mm
Weather Cloud Vis
km
Sea
Height
m
Swell
Dir  Spd
kts
Gust
kts
hPa Trend Height
m
Period
s
Dir
18/11:30pm 10.2 SW 17 23 1021.5 - 1.8 - - - - - - -
18/11:00pm 9.8 SW 15 24 1021.6 - 1.8 - - - - - - -
18/10:42pm 10.6 SW 17 27 1021.3 - 1.8 - - - - - - -
18/10:30pm 10.4 SW 16 23 1021.2 - 1.8 - - - - - - -
18/10:00pm 10.5 SW 16 23 1020.9 - 1.8 - - - - - - -
18/09:30pm 10.3 SW 17 25 1020.7 - 1.8 - - - - - - -
18/09:04pm 10.5 SSW 16 26 1020.4 - 1.8 - - - - - - -
18/09:00pm 10.4 SW 17 25 1020.3 - 1.8 - - - - - - -
18/08:35pm 10.5 SW 17 27 1020.0 - 1.8 - - - - - - -
18/08:30pm 10.5 SW 18 25 1019.9 - 1.8 - - - - - - -
18/08:00pm 10.0 SW 18 27 1019.5 - 1.8 - - - - - - -
18/07:52pm 10.3 SW 17 27 1019.3 - 1.8 - - - - - - -
18/07:30pm 9.8 SW 15 22 1018.8 - 1.8 - - - - - - -

Other Formats:

Comma delimited format used in spreadsheet applications
http://www.bom.gov.au/fwo/IDT60701/IDT60701.95805.axf

JavaScript Object Notation format (JSON) in row-major order
http://www.bom.gov.au/fwo/IDT60701/IDT60701.95805.json